sensor_id;sensor_type;location;lat;lon;timestamp;temperature;humidity
48043;DHT22;33988;47.992;8.820;2022-08-07T00:01:24;21.10;59.00
48043;DHT22;33988;47.992;8.820;2022-08-07T00:04:13;21.10;59.00
48043;DHT22;33988;47.992;8.820;2022-08-07T00:06:43;21.10;59.10
48043;DHT22;33988;47.992;8.820;2022-08-07T00:09:20;21.00;59.10
48043;DHT22;33988;47.992;8.820;2022-08-07T00:11:49;21.00;59.20
48043;DHT22;33988;47.992;8.820;2022-08-07T00:14:27;20.90;59.10
48043;DHT22;33988;47.992;8.820;2022-08-07T00:16:59;20.90;59.20
48043;DHT22;33988;47.992;8.820;2022-08-07T00:19:28;20.90;59.30
48043;DHT22;33988;47.992;8.820;2022-08-07T00:22:21;20.90;59.30
48043;DHT22;33988;47.992;8.820;2022-08-07T00:25:02;20.80;59.60
48043;DHT22;33988;47.992;8.820;2022-08-07T00:27:36;20.80;59.30
48043;DHT22;33988;47.992;8.820;2022-08-07T00:30:20;20.80;59.30
48043;DHT22;33988;47.992;8.820;2022-08-07T00:32:58;20.80;59.30
48043;DHT22;33988;47.992;8.820;2022-08-07T00:35:28;20.70;59.40
48043;DHT22;33988;47.992;8.820;2022-08-07T00:37:59;20.80;59.40
48043;DHT22;33988;47.992;8.820;2022-08-07T00:40:27;20.70;59.40
48043;DHT22;33988;47.992;8.820;2022-08-07T00:43:06;20.70;59.50
48043;DHT22;33988;47.992;8.820;2022-08-07T00:46:01;20.70;59.60
48043;DHT22;33988;47.992;8.820;2022-08-07T00:48:29;20.60;59.70
48043;DHT22;33988;47.992;8.820;2022-08-07T00:50:58;20.60;59.70
48043;DHT22;33988;47.992;8.820;2022-08-07T00:53:28;20.60;59.70
48043;DHT22;33988;47.992;8.820;2022-08-07T00:56:18;20.60;59.70
48043;DHT22;33988;47.992;8.820;2022-08-07T00:58:45;20.60;59.70
48043;DHT22;33988;47.992;8.820;2022-08-07T01:01:18;20.60;59.70
48043;DHT22;33988;47.992;8.820;2022-08-07T01:03:49;20.60;59.80
48043;DHT22;33988;47.992;8.820;2022-08-07T01:06:26;20.60;59.80
48043;DHT22;33988;47.992;8.820;2022-08-07T01:08:54;20.60;59.80
48043;DHT22;33988;47.992;8.820;2022-08-07T01:11:30;20.60;59.80
48043;DHT22;33988;47.992;8.820;2022-08-07T01:14:23;20.60;59.80
48043;DHT22;33988;47.992;8.820;2022-08-07T01:16:57;20.60;59.80
48043;DHT22;33988;47.992;8.820;2022-08-07T01:19:26;20.60;59.90
48043;DHT22;33988;47.992;8.820;2022-08-07T01:22:01;20.50;59.80
48043;DHT22;33988;47.992;8.820;2022-08-07T01:24:37;20.50;59.90
48043;DHT22;33988;47.992;8.820;2022-08-07T01:27:05;20.50;60.30
48043;DHT22;33988;47.992;8.820;2022-08-07T01:29:55;20.50;60.00
48043;DHT22;33988;47.992;8.820;2022-08-07T01:32:28;20.50;60.00
48043;DHT22;33988;47.992;8.820;2022-08-07T01:34:56;20.50;60.10
48043;DHT22;33988;47.992;8.820;2022-08-07T01:37:23;20.50;60.90
48043;DHT22;33988;47.992;8.820;2022-08-07T01:39:51;20.50;60.10
48043;DHT22;33988;47.992;8.820;2022-08-07T01:42:20;20.50;60.20
48043;DHT22;33988;47.992;8.820;2022-08-07T01:45:06;20.50;60.20
48043;DHT22;33988;47.992;8.820;2022-08-07T01:47:48;20.50;60.10
48043;DHT22;33988;47.992;8.820;2022-08-07T01:50:38;20.50;60.00
48043;DHT22;33988;47.992;8.820;2022-08-07T01:53:13;20.50;60.00
48043;DHT22;33988;47.992;8.820;2022-08-07T01:55:55;20.50;60.00
48043;DHT22;33988;47.992;8.820;2022-08-07T01:58:27;20.40;60.00
48043;DHT22;33988;47.992;8.820;2022-08-07T02:01:05;20.40;59.90
48043;DHT22;33988;47.992;8.820;2022-08-07T02:04:12;20.40;60.00
48043;DHT22;33988;47.992;8.820;2022-08-07T02:06:54;20.40;60.10
48043;DHT22;33988;47.992;8.820;2022-08-07T02:09:24;20.40;60.00
48043;DHT22;33988;47.992;8.820;2022-08-07T02:12:12;20.30;60.00
48043;DHT22;33988;47.992;8.820;2022-08-07T02:14:44;20.30;60.00
48043;DHT22;33988;47.992;8.820;2022-08-07T02:17:15;20.10;60.10
48043;DHT22;33988;47.992;8.820;2022-08-07T02:19:58;20.20;60.00
48043;DHT22;33988;47.992;8.820;2022-08-07T02:22:36;20.20;60.00
48043;DHT22;33988;47.992;8.820;2022-08-07T02:25:11;20.20;60.00
48043;DHT22;33988;47.992;8.820;2022-08-07T02:27:45;20.20;60.00
48043;DHT22;33988;47.992;8.820;2022-08-07T02:30:18;20.20;60.00
48043;DHT22;33988;47.992;8.820;2022-08-07T02:32:46;20.20;60.00
48043;DHT22;33988;47.992;8.820;2022-08-07T02:35:36;20.20;60.10
48043;DHT22;33988;47.992;8.820;2022-08-07T02:38:27;20.10;60.20
48043;DHT22;33988;47.992;8.820;2022-08-07T02:40:58;20.10;60.20
48043;DHT22;33988;47.992;8.820;2022-08-07T02:43:29;20.10;60.20
48043;DHT22;33988;47.992;8.820;2022-08-07T02:45:58;20.10;60.40
48043;DHT22;33988;47.992;8.820;2022-08-07T02:48:29;20.10;60.40
48043;DHT22;33988;47.992;8.820;2022-08-07T02:51:04;19.90;60.60
48043;DHT22;33988;47.992;8.820;2022-08-07T02:53:55;20.00;61.30
48043;DHT22;33988;47.992;8.820;2022-08-07T02:56:28;20.00;60.50
48043;DHT22;33988;47.992;8.820;2022-08-07T02:59:02;20.00;60.60
48043;DHT22;33988;47.992;8.820;2022-08-07T03:01:33;20.00;60.60
48043;DHT22;33988;47.992;8.820;2022-08-07T03:04:08;20.00;61.40
48043;DHT22;33988;47.992;8.820;2022-08-07T03:06:40;20.00;60.60
48043;DHT22;33988;47.992;8.820;2022-08-07T03:09:11;20.10;60.60
48043;DHT22;33988;47.992;8.820;2022-08-07T03:11:40;20.10;60.60
48043;DHT22;33988;47.992;8.820;2022-08-07T03:14:24;20.10;60.70
48043;DHT22;33988;47.992;8.820;2022-08-07T03:16:56;20.10;60.70
48043;DHT22;33988;47.992;8.820;2022-08-07T03:19:26;20.10;60.70
48043;DHT22;33988;47.992;8.820;2022-08-07T03:22:04;20.10;60.50
48043;DHT22;33988;47.992;8.820;2022-08-07T03:24:44;20.10;60.50
48043;DHT22;33988;47.992;8.820;2022-08-07T03:27:12;20.00;60.50
48043;DHT22;33988;47.992;8.820;2022-08-07T03:29:57;20.10;60.60
48043;DHT22;33988;47.992;8.820;2022-08-07T03:32:35;20.00;60.60
48043;DHT22;33988;47.992;8.820;2022-08-07T03:35:08;20.00;60.70
48043;DHT22;33988;47.992;8.820;2022-08-07T03:37:49;20.00;60.60
48043;DHT22;33988;47.992;8.820;2022-08-07T03:40:22;20.00;60.80
48043;DHT22;33988;47.992;8.820;2022-08-07T03:42:56;20.00;61.60
48043;DHT22;33988;47.992;8.820;2022-08-07T03:45:27;20.00;60.80
48043;DHT22;33988;47.992;8.820;2022-08-07T03:48:00;20.00;60.80
48043;DHT22;33988;47.992;8.820;2022-08-07T03:50:27;20.00;60.90
48043;DHT22;33988;47.992;8.820;2022-08-07T03:53:00;20.00;60.80
48043;DHT22;33988;47.992;8.820;2022-08-07T03:55:29;19.90;60.70
48043;DHT22;33988;47.992;8.820;2022-08-07T03:58:20;20.00;60.80
48043;DHT22;33988;47.992;8.820;2022-08-07T04:01:12;19.90;60.70
48043;DHT22;33988;47.992;8.820;2022-08-07T04:03:44;19.90;60.70
48043;DHT22;33988;47.992;8.820;2022-08-07T04:06:21;19.90;60.80
48043;DHT22;33988;47.992;8.820;2022-08-07T04:09:10;19.90;60.70
48043;DHT22;33988;47.992;8.820;2022-08-07T04:11:43;19.90;60.70
48043;DHT22;33988;47.992;8.820;2022-08-07T04:14:32;19.80;60.70
48043;DHT22;33988;47.992;8.820;2022-08-07T04:17:14;19.90;60.80
48043;DHT22;33988;47.992;8.820;2022-08-07T04:19:47;19.80;60.90
48043;DHT22;33988;47.992;8.820;2022-08-07T04:22:22;19.80;60.80
48043;DHT22;33988;47.992;8.820;2022-08-07T04:24:58;19.80;60.90
48043;DHT22;33988;47.992;8.820;2022-08-07T04:27:29;19.70;60.80
48043;DHT22;33988;47.992;8.820;2022-08-07T04:30:05;19.80;60.90
48043;DHT22;33988;47.992;8.820;2022-08-07T04:32:47;19.80;61.00
48043;DHT22;33988;47.992;8.820;2022-08-07T04:35:27;19.70;61.10
48043;DHT22;33988;47.992;8.820;2022-08-07T04:38:06;19.70;61.20
48043;DHT22;33988;47.992;8.820;2022-08-07T04:40:39;19.80;61.30
48043;DHT22;33988;47.992;8.820;2022-08-07T04:43:22;19.80;61.30
48043;DHT22;33988;47.992;8.820;2022-08-07T04:49:06;19.80;61.70
48043;DHT22;33988;47.992;8.820;2022-08-07T04:52:02;19.80;62.30
48043;DHT22;33988;47.992;8.820;2022-08-07T04:55:05;19.90;61.50
48043;DHT22;33988;47.992;8.820;2022-08-07T04:58:39;19.90;61.60
48043;DHT22;33988;47.992;8.820;2022-08-07T05:04:37;20.00;61.60
48043;DHT22;33988;47.992;8.820;2022-08-07T05:07:17;20.00;61.60
48043;DHT22;33988;47.992;8.820;2022-08-07T05:13:13;20.00;61.70
48043;DHT22;33988;47.992;8.820;2022-08-07T05:16:07;20.10;61.70
48043;DHT22;33988;47.992;8.820;2022-08-07T05:18:39;20.10;61.70
48043;DHT22;33988;47.992;8.820;2022-08-07T05:21:13;20.20;61.70
48043;DHT22;33988;47.992;8.820;2022-08-07T05:24:09;20.30;61.80
48043;DHT22;33988;47.992;8.820;2022-08-07T05:26:45;20.30;61.80
48043;DHT22;33988;47.992;8.820;2022-08-07T05:29:16;20.30;61.70
48043;DHT22;33988;47.992;8.820;2022-08-07T05:31:47;20.40;62.50
48043;DHT22;33988;47.992;8.820;2022-08-07T05:34:19;20.40;61.60
48043;DHT22;33988;47.992;8.820;2022-08-07T05:36:52;20.50;61.60
48043;DHT22;33988;47.992;8.820;2022-08-07T05:39:21;20.50;61.50
48043;DHT22;33988;47.992;8.820;2022-08-07T05:42:13;20.60;61.50
48043;DHT22;33988;47.992;8.820;2022-08-07T05:44:59;20.60;61.40
48043;DHT22;33988;47.992;8.820;2022-08-07T05:47:43;20.60;62.20
48043;DHT22;33988;47.992;8.820;2022-08-07T05:50:30;20.70;61.40
48043;DHT22;33988;47.992;8.820;2022-08-07T05:53:07;20.70;61.30
48043;DHT22;33988;47.992;8.820;2022-08-07T05:55:55;20.80;61.30
48043;DHT22;33988;47.992;8.820;2022-08-07T05:58:29;20.80;61.10
48043;DHT22;33988;47.992;8.820;2022-08-07T06:01:04;20.90;61.00
48043;DHT22;33988;47.992;8.820;2022-08-07T06:03:46;20.90;60.90
48043;DHT22;33988;47.992;8.820;2022-08-07T06:06:26;20.90;60.90
48043;DHT22;33988;47.992;8.820;2022-08-07T06:09:00;21.00;60.90
48043;DHT22;33988;47.992;8.820;2022-08-07T06:11:32;21.10;60.90
48043;DHT22;33988;47.992;8.820;2022-08-07T06:14:04;21.10;60.80
48043;DHT22;33988;47.992;8.820;2022-08-07T06:16:48;21.20;60.60
48043;DHT22;33988;47.992;8.820;2022-08-07T06:19:23;21.20;60.40
48043;DHT22;33988;47.992;8.820;2022-08-07T06:22:12;21.30;60.40
48043;DHT22;33988;47.992;8.820;2022-08-07T06:24:57;21.40;60.20
48043;DHT22;33988;47.992;8.820;2022-08-07T06:27:28;21.50;60.10
48043;DHT22;33988;47.992;8.820;2022-08-07T06:30:15;21.60;60.00
48043;DHT22;33988;47.992;8.820;2022-08-07T06:33:03;21.60;60.60
48043;DHT22;33988;47.992;8.820;2022-08-07T06:35:44;21.70;59.70
48043;DHT22;33988;47.992;8.820;2022-08-07T06:38:35;21.80;59.60
48043;DHT22;33988;47.992;8.820;2022-08-07T06:41:45;21.80;59.50
48043;DHT22;33988;47.992;8.820;2022-08-07T06:44:29;21.80;59.40
48043;DHT22;33988;47.992;8.820;2022-08-07T06:47:04;21.90;59.40
48043;DHT22;33988;47.992;8.820;2022-08-07T06:49:42;22.00;59.30
48043;DHT22;33988;47.992;8.820;2022-08-07T06:52:20;22.10;59.30
48043;DHT22;33988;47.992;8.820;2022-08-07T06:55:12;22.20;59.20
48043;DHT22;33988;47.992;8.820;2022-08-07T06:58:03;22.30;59.00
48043;DHT22;33988;47.992;8.820;2022-08-07T07:00:39;22.40;59.00
48043;DHT22;33988;47.992;8.820;2022-08-07T07:03:08;22.50;58.70
48043;DHT22;33988;47.992;8.820;2022-08-07T07:05:42;22.60;58.60
48043;DHT22;33988;47.992;8.820;2022-08-07T07:08:31;22.70;58.50
48043;DHT22;33988;47.992;8.820;2022-08-07T07:11:01;22.80;58.40
48043;DHT22;33988;47.992;8.820;2022-08-07T07:13:53;22.90;58.20
48043;DHT22;33988;47.992;8.820;2022-08-07T07:16:30;22.90;58.00
48043;DHT22;33988;47.992;8.820;2022-08-07T07:19:18;23.00;57.80
48043;DHT22;33988;47.992;8.820;2022-08-07T07:22:09;23.20;57.70
48043;DHT22;33988;47.992;8.820;2022-08-07T07:24:57;23.30;57.50
48043;DHT22;33988;47.992;8.820;2022-08-07T07:27:52;23.40;57.50
48043;DHT22;33988;47.992;8.820;2022-08-07T07:30:31;23.50;57.40
48043;DHT22;33988;47.992;8.820;2022-08-07T07:33:08;23.40;57.60
48043;DHT22;33988;47.992;8.820;2022-08-07T07:35:40;23.80;57.30
48043;DHT22;33988;47.992;8.820;2022-08-07T07:38:29;24.10;56.80
48043;DHT22;33988;47.992;8.820;2022-08-07T07:41:03;24.20;56.40
48043;DHT22;33988;47.992;8.820;2022-08-07T07:43:38;24.40;56.10
48043;DHT22;33988;47.992;8.820;2022-08-07T07:46:29;24.70;55.70
48043;DHT22;33988;47.992;8.820;2022-08-07T07:49:20;25.00;55.20
48043;DHT22;33988;47.992;8.820;2022-08-07T07:52:09;25.20;54.60
48043;DHT22;33988;47.992;8.820;2022-08-07T07:54:40;25.50;54.30
48043;DHT22;33988;47.992;8.820;2022-08-07T07:57:18;25.70;53.40
48043;DHT22;33988;47.992;8.820;2022-08-07T08:00:07;26.00;52.80
48043;DHT22;33988;47.992;8.820;2022-08-07T08:03:01;26.20;52.40
48043;DHT22;33988;47.992;8.820;2022-08-07T08:05:43;26.40;51.90
48043;DHT22;33988;47.992;8.820;2022-08-07T08:08:23;26.60;51.70
48043;DHT22;33988;47.992;8.820;2022-08-07T08:11:09;26.90;51.10
48043;DHT22;33988;47.992;8.820;2022-08-07T08:13:59;27.00;49.80
48043;DHT22;33988;47.992;8.820;2022-08-07T08:16:36;27.10;49.80
48043;DHT22;33988;47.992;8.820;2022-08-07T08:19:07;27.10;48.70
48043;DHT22;33988;47.992;8.820;2022-08-07T08:21:56;27.30;49.00
48043;DHT22;33988;47.992;8.820;2022-08-07T08:24:44;27.10;48.40
48043;DHT22;33988;47.992;8.820;2022-08-07T08:27:52;27.40;48.90
48043;DHT22;33988;47.992;8.820;2022-08-07T08:30:23;27.50;48.80
48043;DHT22;33988;47.992;8.820;2022-08-07T08:32:52;27.50;48.40
48043;DHT22;33988;47.992;8.820;2022-08-07T08:35:24;27.60;47.90
48043;DHT22;33988;47.992;8.820;2022-08-07T08:38:08;27.60;47.30
48043;DHT22;33988;47.992;8.820;2022-08-07T08:40:40;27.60;46.90
48043;DHT22;33988;47.992;8.820;2022-08-07T08:43:34;27.70;46.80
48043;DHT22;33988;47.992;8.820;2022-08-07T08:46:27;27.70;46.70
48043;DHT22;33988;47.992;8.820;2022-08-07T08:49:07;27.70;46.30
48043;DHT22;33988;47.992;8.820;2022-08-07T08:55:03;27.80;46.30
48043;DHT22;33988;47.992;8.820;2022-08-07T08:58:18;27.90;45.80
48043;DHT22;33988;47.992;8.820;2022-08-07T09:01:15;28.00;46.00
48043;DHT22;33988;47.992;8.820;2022-08-07T09:15:46;28.10;43.90
48043;DHT22;33988;47.992;8.820;2022-08-07T09:21:38;28.10;44.40
48043;DHT22;33988;47.992;8.820;2022-08-07T09:24:50;28.10;44.40
48043;DHT22;33988;47.992;8.820;2022-08-07T09:28:06;28.10;44.00
48043;DHT22;33988;47.992;8.820;2022-08-07T09:31:02;28.00;43.40
48043;DHT22;33988;47.992;8.820;2022-08-07T09:34:10;28.10;44.10
48043;DHT22;33988;47.992;8.820;2022-08-07T09:42:51;28.10;43.60
48043;DHT22;33988;47.992;8.820;2022-08-07T09:48:39;28.10;43.10
48043;DHT22;33988;47.992;8.820;2022-08-07T10:10:29;28.00;42.20
48043;DHT22;33988;47.992;8.820;2022-08-07T10:17:05;27.90;42.10
48043;DHT22;33988;47.992;8.820;2022-08-07T10:22:43;27.90;42.30
48043;DHT22;33988;47.992;8.820;2022-08-07T10:35:29;27.90;41.40
48043;DHT22;33988;47.992;8.820;2022-08-07T10:44:26;28.10;42.20
48043;DHT22;33988;47.992;8.820;2022-08-07T10:47:32;28.20;42.90
48043;DHT22;33988;47.992;8.820;2022-08-07T10:50:25;28.20;41.50
48043;DHT22;33988;47.992;8.820;2022-08-07T10:57:05;28.20;41.30
48043;DHT22;33988;47.992;8.820;2022-08-07T10:59:51;28.20;40.90
48043;DHT22;33988;47.992;8.820;2022-08-07T11:03:05;28.20;41.90
48043;DHT22;33988;47.992;8.820;2022-08-07T11:12:17;28.20;41.20
48043;DHT22;33988;47.992;8.820;2022-08-07T11:15:08;28.20;41.70
48043;DHT22;33988;47.992;8.820;2022-08-07T11:20:53;28.40;41.80
48043;DHT22;33988;47.992;8.820;2022-08-07T11:27:29;28.30;40.40
48043;DHT22;33988;47.992;8.820;2022-08-07T11:36:55;28.20;39.00
48043;DHT22;33988;47.992;8.820;2022-08-07T11:42:45;28.10;41.20
48043;DHT22;33988;47.992;8.820;2022-08-07T11:58:20;28.00;39.60
48043;DHT22;33988;47.992;8.820;2022-08-07T12:01:34;28.00;40.30
48043;DHT22;33988;47.992;8.820;2022-08-07T12:10:09;27.70;39.10
48043;DHT22;33988;47.992;8.820;2022-08-07T12:12:59;27.80;40.10
48043;DHT22;33988;47.992;8.820;2022-08-07T12:15:52;27.80;39.80
48043;DHT22;33988;47.992;8.820;2022-08-07T12:18:40;27.70;39.30
48043;DHT22;33988;47.992;8.820;2022-08-07T12:24:58;27.70;40.50
48043;DHT22;33988;47.992;8.820;2022-08-07T12:28:44;27.70;40.40
48043;DHT22;33988;47.992;8.820;2022-08-07T12:34:33;27.80;40.40
48043;DHT22;33988;47.992;8.820;2022-08-07T12:37:03;27.90;40.80
48043;DHT22;33988;47.992;8.820;2022-08-07T12:39:46;28.00;40.80
48043;DHT22;33988;47.992;8.820;2022-08-07T12:42:23;28.00;40.50
48043;DHT22;33988;47.992;8.820;2022-08-07T12:44:59;28.10;40.20
48043;DHT22;33988;47.992;8.820;2022-08-07T12:47:41;28.10;40.10
48043;DHT22;33988;47.992;8.820;2022-08-07T12:50:39;28.20;40.30
48043;DHT22;33988;47.992;8.820;2022-08-07T12:56:28;28.20;39.90
48043;DHT22;33988;47.992;8.820;2022-08-07T12:58:58;28.20;39.50
48043;DHT22;33988;47.992;8.820;2022-08-07T13:17:16;27.90;40.00
48043;DHT22;33988;47.992;8.820;2022-08-07T13:23:14;27.90;40.40
48043;DHT22;33988;47.992;8.820;2022-08-07T13:26:38;28.00;40.10
48043;DHT22;33988;47.992;8.820;2022-08-07T13:29:17;27.90;39.50
48043;DHT22;33988;47.992;8.820;2022-08-07T13:31:59;27.90;40.00
48043;DHT22;33988;47.992;8.820;2022-08-07T13:38:04;27.90;39.60
48043;DHT22;33988;47.992;8.820;2022-08-07T13:43:48;28.00;40.30
48043;DHT22;33988;47.992;8.820;2022-08-07T13:46:30;28.20;40.60
48043;DHT22;33988;47.992;8.820;2022-08-07T13:49:09;28.20;40.20
48043;DHT22;33988;47.992;8.820;2022-08-07T13:52:02;28.30;40.20
48043;DHT22;33988;47.992;8.820;2022-08-07T13:54:54;28.30;40.00
48043;DHT22;33988;47.992;8.820;2022-08-07T13:57:27;28.40;40.00
48043;DHT22;33988;47.992;8.820;2022-08-07T14:00:06;28.40;40.30
48043;DHT22;33988;47.992;8.820;2022-08-07T14:02:57;28.50;39.50
48043;DHT22;33988;47.992;8.820;2022-08-07T14:05:25;28.50;39.20
48043;DHT22;33988;47.992;8.820;2022-08-07T14:08:05;28.40;39.20
48043;DHT22;33988;47.992;8.820;2022-08-07T14:10:36;28.40;39.10
48043;DHT22;33988;47.992;8.820;2022-08-07T14:13:13;28.30;38.90
48043;DHT22;33988;47.992;8.820;2022-08-07T14:15:50;28.30;38.90
48043;DHT22;33988;47.992;8.820;2022-08-07T14:18:37;28.20;38.90
48043;DHT22;33988;47.992;8.820;2022-08-07T14:21:29;28.20;38.80
48043;DHT22;33988;47.992;8.820;2022-08-07T14:24:32;28.10;39.00
48043;DHT22;33988;47.992;8.820;2022-08-07T14:27:15;28.10;39.10
48043;DHT22;33988;47.992;8.820;2022-08-07T14:30:11;28.00;38.70
48043;DHT22;33988;47.992;8.820;2022-08-07T14:33:01;28.00;39.00
48043;DHT22;33988;47.992;8.820;2022-08-07T14:35:32;28.00;39.00
48043;DHT22;33988;47.992;8.820;2022-08-07T14:38:20;28.00;39.00
48043;DHT22;33988;47.992;8.820;2022-08-07T14:41:09;28.10;39.10
48043;DHT22;33988;47.992;8.820;2022-08-07T14:43:47;28.10;38.60
48043;DHT22;33988;47.992;8.820;2022-08-07T14:46:27;28.00;38.90
48043;DHT22;33988;47.992;8.820;2022-08-07T14:49:16;28.00;39.10
48043;DHT22;33988;47.992;8.820;2022-08-07T14:52:05;28.00;39.20
48043;DHT22;33988;47.992;8.820;2022-08-07T14:54:38;27.90;38.90
48043;DHT22;33988;47.992;8.820;2022-08-07T14:57:13;27.90;38.70
48043;DHT22;33988;47.992;8.820;2022-08-07T14:59:45;27.90;39.00
48043;DHT22;33988;47.992;8.820;2022-08-07T15:02:34;27.90;39.20
48043;DHT22;33988;47.992;8.820;2022-08-07T15:05:05;27.90;39.70
48043;DHT22;33988;47.992;8.820;2022-08-07T15:07:47;27.90;39.00
48043;DHT22;33988;47.992;8.820;2022-08-07T15:10:21;27.90;39.20
48043;DHT22;33988;47.992;8.820;2022-08-07T15:12:57;27.90;39.40
48043;DHT22;33988;47.992;8.820;2022-08-07T15:15:37;27.90;39.40
48043;DHT22;33988;47.992;8.820;2022-08-07T15:18:17;27.90;39.30
48043;DHT22;33988;47.992;8.820;2022-08-07T15:21:05;27.80;39.20
48043;DHT22;33988;47.992;8.820;2022-08-07T15:23:56;27.90;39.70
48043;DHT22;33988;47.992;8.820;2022-08-07T15:26:57;27.90;39.70
48043;DHT22;33988;47.992;8.820;2022-08-07T15:29:41;27.80;39.50
48043;DHT22;33988;47.992;8.820;2022-08-07T15:32:30;27.80;39.60
48043;DHT22;33988;47.992;8.820;2022-08-07T15:35:10;27.80;39.90
48043;DHT22;33988;47.992;8.820;2022-08-07T15:37:50;27.80;39.90
48043;DHT22;33988;47.992;8.820;2022-08-07T15:40:45;27.80;39.90
48043;DHT22;33988;47.992;8.820;2022-08-07T15:43:26;27.70;39.80
48043;DHT22;33988;47.992;8.820;2022-08-07T15:46:21;27.80;40.00
48043;DHT22;33988;47.992;8.820;2022-08-07T15:49:10;27.70;40.20
48043;DHT22;33988;47.992;8.820;2022-08-07T15:51:44;27.70;40.20
48043;DHT22;33988;47.992;8.820;2022-08-07T15:54:25;27.70;40.30
48043;DHT22;33988;47.992;8.820;2022-08-07T15:57:09;27.70;40.40
48043;DHT22;33988;47.992;8.820;2022-08-07T16:00:01;27.60;40.30
48043;DHT22;33988;47.992;8.820;2022-08-07T16:02:39;27.60;41.00
48043;DHT22;33988;47.992;8.820;2022-08-07T16:05:16;27.60;40.30
48043;DHT22;33988;47.992;8.820;2022-08-07T16:07:49;27.60;40.40
48043;DHT22;33988;47.992;8.820;2022-08-07T16:10:42;27.60;40.40
48043;DHT22;33988;47.992;8.820;2022-08-07T16:16:33;27.40;40.10
48043;DHT22;33988;47.992;8.820;2022-08-07T16:25:38;27.30;40.20
48043;DHT22;33988;47.992;8.820;2022-08-07T16:34:49;27.30;40.60
48043;DHT22;33988;47.992;8.820;2022-08-07T16:44:00;27.30;40.90
48043;DHT22;33988;47.992;8.820;2022-08-07T16:50:29;27.20;40.80
48043;DHT22;33988;47.992;8.820;2022-08-07T17:02:34;27.20;40.20
48043;DHT22;33988;47.992;8.820;2022-08-07T17:15:11;26.90;40.90
48043;DHT22;33988;47.992;8.820;2022-08-07T17:21:27;27.10;41.20
48043;DHT22;33988;47.992;8.820;2022-08-07T17:30:45;27.10;41.10
48043;DHT22;33988;47.992;8.820;2022-08-07T17:33:30;27.10;41.20
48043;DHT22;33988;47.992;8.820;2022-08-07T17:36:24;27.10;41.20
48043;DHT22;33988;47.992;8.820;2022-08-07T17:39:07;27.10;41.10
48043;DHT22;33988;47.992;8.820;2022-08-07T17:41:56;27.10;41.30
48043;DHT22;33988;47.992;8.820;2022-08-07T17:44:49;27.10;41.40
48043;DHT22;33988;47.992;8.820;2022-08-07T17:59:02;26.90;41.20
48043;DHT22;33988;47.992;8.820;2022-08-07T18:08:18;26.70;41.40
48043;DHT22;33988;47.992;8.820;2022-08-07T18:10:53;26.70;41.20
48043;DHT22;33988;47.992;8.820;2022-08-07T18:19:35;26.50;42.00
48043;DHT22;33988;47.992;8.820;2022-08-07T18:22:42;26.50;41.90
48043;DHT22;33988;47.992;8.820;2022-08-07T18:25:23;26.50;41.90
48043;DHT22;33988;47.992;8.820;2022-08-07T18:28:21;26.40;41.90
48043;DHT22;33988;47.992;8.820;2022-08-07T18:34:44;26.40;42.00
48043;DHT22;33988;47.992;8.820;2022-08-07T18:46:35;26.20;42.40
